sensor_id;sensor_type;location;lat;lon;timestamp;temperature;humidity
24176;DHT22;12324;48.146;11.502;2023-08-08T05:14:03;14.20;99.90
24176;DHT22;12324;48.146;11.502;2023-08-08T05:16:30;12.30;99.90
24176;DHT22;12324;48.146;11.502;2023-08-08T05:18:57;12.30;99.90
24176;DHT22;12324;48.146;11.502;2023-08-08T05:21:23;12.40;99.90
24176;DHT22;12324;48.146;11.502;2023-08-08T05:23:50;12.40;99.90
24176;DHT22;12324;48.146;11.502;2023-08-08T05:31:11;12.50;99.90
24176;DHT22;12324;48.146;11.502;2023-08-08T05:33:38;12.70;99.90
24176;DHT22;12324;48.146;11.502;2023-08-08T05:36:05;12.70;99.90
24176;DHT22;12324;48.146;11.502;2023-08-08T05:38:32;12.80;99.90
24176;DHT22;12324;48.146;11.502;2023-08-08T09:30:09;12.90;99.90
24176;DHT22;12324;48.146;11.502;2023-08-08T09:32:37;19.20;99.90
24176;DHT22;12324;48.146;11.502;2023-08-08T09:35:04;19.40;99.90
24176;DHT22;12324;48.146;11.502;2023-08-08T09:37:34;19.20;99.90
24176;DHT22;12324;48.146;11.502;2023-08-08T09:40:04;19.20;99.90
24176;DHT22;12324;48.146;11.502;2023-08-08T09:42:32;18.70;99.90
24176;DHT22;12324;48.146;11.502;2023-08-08T09:44:59;18.80;99.90
24176;DHT22;12324;48.146;11.502;2023-08-08T09:47:26;19.40;99.90
24176;DHT22;12324;48.146;11.502;2023-08-08T09:50:01;19.70;99.90
24176;DHT22;12324;48.146;11.502;2023-08-08T09:57:29;19.80;99.90
24176;DHT22;12324;48.146;11.502;2023-08-08T09:59:59;20.30;99.90
24176;DHT22;12324;48.146;11.502;2023-08-08T10:02:27;20.20;99.90
24176;DHT22;12324;48.146;11.502;2023-08-08T10:04:57;20.10;99.90
24176;DHT22;12324;48.146;11.502;2023-08-08T10:07:25;20.10;99.90
24176;DHT22;12324;48.146;11.502;2023-08-08T10:32:43;19.90;99.90
24176;DHT22;12324;48.146;11.502;2023-08-08T10:35:11;20.50;99.90
24176;DHT22;12324;48.146;11.502;2023-08-08T10:37:39;20.30;99.90
24176;DHT22;12324;48.146;11.502;2023-08-08T10:40:06;20.30;99.90
24176;DHT22;12324;48.146;11.502;2023-08-08T10:42:44;20.10;99.90
24176;DHT22;12324;48.146;11.502;2023-08-08T10:45:15;20.00;99.90
24176;DHT22;12324;48.146;11.502;2023-08-08T10:47:43;19.70;99.90
24176;DHT22;12324;48.146;11.502;2023-08-08T10:50:14;19.60;99.90
24176;DHT22;12324;48.146;11.502;2023-08-08T11:15:35;19.50;99.90
24176;DHT22;12324;48.146;11.502;2023-08-08T11:18:03;20.30;99.90
24176;DHT22;12324;48.146;11.502;2023-08-08T12:27:32;20.60;99.90
24176;DHT22;12324;48.146;11.502;2023-08-08T12:29:59;20.90;99.90
24176;DHT22;12324;48.146;11.502;2023-08-08T12:37:23;21.00;99.90
24176;DHT22;12324;48.146;11.502;2023-08-08T12:57:03;21.10;94.80
24176;DHT22;12324;48.146;11.502;2023-08-08T12:59:30;21.70;97.20
24176;DHT22;12324;48.146;11.502;2023-08-08T13:01:57;21.50;93.90
24176;DHT22;12324;48.146;11.502;2023-08-08T13:04:25;21.60;96.90
24176;DHT22;12324;48.146;11.502;2023-08-08T13:09:19;22.20;94.80
24176;DHT22;12324;48.146;11.502;2023-08-08T13:11:46;22.10;94.40
24176;DHT22;12324;48.146;11.502;2023-08-08T13:14:13;22.70;93.60
24176;DHT22;12324;48.146;11.502;2023-08-08T13:16:40;21.80;94.30
24176;DHT22;12324;48.146;11.502;2023-08-08T13:19:07;22.20;93.50
24176;DHT22;12324;48.146;11.502;2023-08-08T13:24:01;22.50;92.90
24176;DHT22;12324;48.146;11.502;2023-08-08T13:26:27;23.10;91.50
24176;DHT22;12324;48.146;11.502;2023-08-08T13:28:54;22.40;93.30
24176;DHT22;12324;48.146;11.502;2023-08-08T13:36:15;22.50;91.80
24176;DHT22;12324;48.146;11.502;2023-08-08T13:38:42;22.70;92.30
24176;DHT22;12324;48.146;11.502;2023-08-08T13:41:09;22.30;93.00
24176;DHT22;12324;48.146;11.502;2023-08-08T13:43:36;22.10;94.90
24176;DHT22;12324;48.146;11.502;2023-08-08T13:48:34;22.70;95.60
24176;DHT22;12324;48.146;11.502;2023-08-08T13:51:01;22.40;94.20
24176;DHT22;12324;48.146;11.502;2023-08-08T13:53:29;22.50;91.90
24176;DHT22;12324;48.146;11.502;2023-08-08T13:55:56;22.20;92.00
24176;DHT22;12324;48.146;11.502;2023-08-08T13:58:23;22.50;91.20
24176;DHT22;12324;48.146;11.502;2023-08-08T14:00:50;23.10;90.60
24176;DHT22;12324;48.146;11.502;2023-08-08T14:05:46;23.20;92.90
24176;DHT22;12324;48.146;11.502;2023-08-08T14:08:13;22.00;93.10
24176;DHT22;12324;48.146;11.502;2023-08-08T14:10:40;22.60;94.10
24176;DHT22;12324;48.146;11.502;2023-08-08T14:15:34;23.00;93.00
24176;DHT22;12324;48.146;11.502;2023-08-08T14:18:01;22.30;95.20
24176;DHT22;12324;48.146;11.502;2023-08-08T14:20:27;22.70;93.90
24176;DHT22;12324;48.146;11.502;2023-08-08T14:22:54;22.60;93.30
24176;DHT22;12324;48.146;11.502;2023-08-08T14:25:22;22.30;94.20
24176;DHT22;12324;48.146;11.502;2023-08-08T14:27:49;22.30;95.80
24176;DHT22;12324;48.146;11.502;2023-08-08T14:30:15;22.10;96.40
24176;DHT22;12324;48.146;11.502;2023-08-08T14:32:42;22.10;96.70
24176;DHT22;12324;48.146;11.502;2023-08-08T18:13:50;21.00;99.90
24176;DHT22;12324;48.146;11.502;2023-08-08T18:16:17;19.10;99.90
24176;DHT22;12324;48.146;11.502;2023-08-08T20:11:57;18.80;99.90
24176;DHT22;12324;48.146;11.502;2023-08-08T20:19:19;17.10;99.90
24176;DHT22;12324;48.146;11.502;2023-08-08T20:21:46;16.80;99.90
24176;DHT22;12324;48.146;11.502;2023-08-08T23:16:19;16.70;99.90
24176;DHT22;12324;48.146;11.502;2023-08-08T23:18:46;14.80;99.90
24176;DHT22;12324;48.146;11.502;2023-08-08T23:21:12;14.70;99.90
24176;DHT22;12324;48.146;11.502;2023-08-08T23:23:39;14.70;99.90
24176;DHT22;12324;48.146;11.502;2023-08-08T23:26:06;14.60;99.90
24176;DHT22;12324;48.146;11.502;2023-08-08T23:28:33;14.50;99.90
24176;DHT22;12324;48.146;11.502;2023-08-08T23:31:00;14.50;99.90
24176;DHT22;12324;48.146;11.502;2023-08-08T23:33:27;14.40;99.90
24176;DHT22;12324;48.146;11.502;2023-08-08T23:35:53;14.40;99.90
24176;DHT22;12324;48.146;11.502;2023-08-08T23:38:21;14.40;99.90
24176;DHT22;12324;48.146;11.502;2023-08-08T23:40:47;14.40;99.90
24176;DHT22;12324;48.146;11.502;2023-08-08T23:43:15;14.30;99.90
24176;DHT22;12324;48.146;11.502;2023-08-08T23:45:42;14.30;99.90
24176;DHT22;12324;48.146;11.502;2023-08-08T23:48:08;14.40;99.90
24176;DHT22;12324;48.146;11.502;2023-08-08T23:50:35;14.40;99.90
24176;DHT22;12324;48.146;11.502;2023-08-08T23:53:02;14.30;99.90
24176;DHT22;12324;48.146;11.502;2023-08-08T23:55:29;14.30;99.90
24176;DHT22;12324;48.146;11.502;2023-08-08T23:57:56;14.30;99.90
